createdAt,value
2022-08-22T00:00:45.747Z,8.00
2022-08-22T00:02:49.418Z,8.60
2022-08-22T00:03:01.248Z,18.40
2022-08-22T00:03:11.262Z,9.50
2022-08-22T00:03:42.582Z,10.70
2022-08-22T00:06:24.690Z,9.40
2022-08-22T00:09:20.202Z,9.40
2022-08-22T00:12:00.390Z,7.70
2022-08-22T00:14:42.344Z,14.70
2022-08-22T00:17:45.396Z,16.10
2022-08-22T00:20:26.087Z,9.70
2022-08-22T00:23:15.992Z,11.00
2022-08-22T00:26:00.148Z,9.50
2022-08-22T00:28:40.353Z,16.40
2022-08-22T00:31:24.667Z,12.40
2022-08-22T00:34:03.679Z,7.10
2022-08-22T00:36:47.779Z,9.40
2022-08-22T00:39:28.516Z,9.80
2022-08-22T00:42:32.363Z,9.80
2022-08-22T00:46:00.609Z,10.90
2022-08-22T00:49:25.466Z,8.20
2022-08-22T00:52:42.917Z,7.30
2022-08-22T00:55:59.750Z,10.90
2022-08-22T00:59:23.962Z,9.80
2022-08-22T01:02:13.394Z,10.90
2022-08-22T01:05:11.158Z,7.50
2022-08-22T01:08:04.837Z,6.90
2022-08-22T01:10:56.245Z,8.30
2022-08-22T01:13:48.316Z,7.00
2022-08-22T01:16:47.688Z,7.90
2022-08-22T01:20:04.856Z,9.30
2022-08-22T01:23:33.605Z,11.00
2022-08-22T01:27:08.546Z,9.00
2022-08-22T01:30:19.281Z,7.00
2022-08-22T01:33:35.625Z,8.70
2022-08-22T01:36:46.016Z,7.20
2022-08-22T01:39:48.416Z,6.90
2022-08-22T01:43:07.022Z,8.40
2022-08-22T01:46:11.995Z,7.20
2022-08-22T01:48:51.184Z,7.80
2022-08-22T01:51:32.366Z,8.40
2022-08-22T01:54:13.315Z,9.70
2022-08-22T01:56:48.270Z,10.70
2022-08-22T01:59:35.016Z,6.40
2022-08-22T02:02:37.019Z,10.00
2022-08-22T02:05:20.750Z,7.60
2022-08-22T02:08:01.865Z,6.30
2022-08-22T02:10:56.255Z,7.90
2022-08-22T02:13:58.945Z,7.20
2022-08-22T02:16:42.778Z,8.50
2022-08-22T02:19:34.912Z,5.30
2022-08-22T02:22:21.710Z,8.10
2022-08-22T02:25:08.938Z,7.90
2022-08-22T02:27:55.291Z,10.60
2022-08-22T02:30:47.397Z,5.70
2022-08-22T02:33:35.246Z,9.30
2022-08-22T02:36:22.143Z,9.20
2022-08-22T02:39:06.404Z,12.00
2022-08-22T02:41:52.885Z,9.30
2022-08-22T02:44:31.398Z,9.20
2022-08-22T02:47:15.203Z,5.10
2022-08-22T02:49:55.810Z,5.20
2022-08-22T02:52:35.253Z,5.90
2022-08-22T02:55:14.887Z,12.60
2022-08-22T02:57:58.044Z,4.40
2022-08-22T03:00:43.565Z,7.20
2022-08-22T03:03:28.881Z,6.80
2022-08-22T03:06:07.482Z,8.70
2022-08-22T03:09:01.007Z,15.50
2022-08-22T03:11:39.465Z,7.20
2022-08-22T03:14:21.581Z,12.20
2022-08-22T03:17:05.243Z,5.40
2022-08-22T03:20:01.488Z,9.60
2022-08-22T03:22:45.014Z,6.70
2022-08-22T03:25:31.271Z,9.10
2022-08-22T03:28:09.626Z,10.20
2022-08-22T03:30:57.329Z,9.40
2022-08-22T03:33:32.474Z,10.70
2022-08-22T03:36:28.504Z,9.50
2022-08-22T03:39:17.379Z,12.50
2022-08-22T03:42:21.043Z,9.00
2022-08-22T03:45:49.269Z,8.00
2022-08-22T03:48:42.668Z,10.40
2022-08-22T03:51:31.755Z,8.70
2022-08-22T03:54:38.624Z,9.40
2022-08-22T03:58:05.386Z,6.00
2022-08-22T04:01:23.473Z,7.10
2022-08-22T04:04:48.784Z,9.10
2022-08-22T04:07:47.246Z,8.50
2022-08-22T04:11:02.453Z,7.60
2022-08-22T04:14:13.485Z,6.80
2022-08-22T04:17:20.328Z,6.90
2022-08-22T04:20:26.632Z,8.30
2022-08-22T04:23:28.700Z,5.80
2022-08-22T04:26:12.539Z,4.90
2022-08-22T04:28:53.950Z,8.30
2022-08-22T04:31:34.985Z,5.30
2022-08-22T04:34:17.254Z,8.00
2022-08-22T04:36:56.644Z,8.80
2022-08-22T04:39:39.928Z,11.20
2022-08-22T04:42:34.097Z,5.30
2022-08-22T04:45:15.594Z,8.10
2022-08-22T04:47:55.331Z,7.70
2022-08-22T04:50:35.051Z,9.90
2022-08-22T04:53:34.334Z,8.20
2022-08-22T04:56:17.006Z,5.20
2022-08-22T04:59:00.649Z,5.60
2022-08-22T05:01:46.933Z,10.30
2022-08-22T05:04:25.361Z,6.80
2022-08-22T05:07:08.042Z,9.70
2022-08-22T05:09:49.568Z,7.70
2022-08-22T05:12:30.126Z,8.30
2022-08-22T05:15:11.044Z,7.80
2022-08-22T05:17:47.472Z,8.60
2022-08-22T05:20:26.839Z,4.60
2022-08-22T05:23:05.992Z,7.00
2022-08-22T05:25:54.532Z,6.50
2022-08-22T05:28:38.597Z,4.90
2022-08-22T05:31:23.259Z,7.60
2022-08-22T05:34:02.466Z,6.00
2022-08-22T05:36:40.178Z,8.90
2022-08-22T05:39:18.986Z,6.00
2022-08-22T05:41:55.390Z,5.30
2022-08-22T05:44:33.375Z,8.90
2022-08-22T05:47:18.018Z,5.70
2022-08-22T05:50:00.228Z,6.10
2022-08-22T05:52:53.019Z,7.40
2022-08-22T05:55:32.724Z,8.40
2022-08-22T05:58:29.476Z,9.10
2022-08-22T06:01:18.056Z,8.30
2022-08-22T06:04:02.570Z,7.40
2022-08-22T06:06:39.308Z,10.20
2022-08-22T06:09:19.397Z,7.50
2022-08-22T06:12:02.329Z,6.50
2022-08-22T06:14:45.396Z,6.20
2022-08-22T06:17:23.056Z,6.20
2022-08-22T06:19:57.293Z,5.00
2022-08-22T06:22:34.279Z,4.80
2022-08-22T06:25:15.562Z,7.60
2022-08-22T06:27:50.957Z,3.50
2022-08-22T06:30:26.775Z,6.80
2022-08-22T06:33:04.774Z,4.80
2022-08-22T06:35:59.822Z,5.00
2022-08-22T06:38:52.827Z,6.10
2022-08-22T06:41:29.830Z,5.60
2022-08-22T06:44:06.035Z,5.20
2022-08-22T06:46:41.809Z,4.50
2022-08-22T06:49:15.895Z,6.50
2022-08-22T06:51:49.964Z,6.90
2022-08-22T06:54:30.357Z,4.40
2022-08-22T06:57:07.627Z,3.80
2022-08-22T06:59:44.085Z,5.90
2022-08-22T07:02:27.746Z,4.40
2022-08-22T07:05:00.954Z,4.90
2022-08-22T07:07:38.908Z,5.50
2022-08-22T07:10:14.359Z,4.50
2022-08-22T07:12:52.824Z,3.60
2022-08-22T07:15:35.691Z,3.70
2022-08-22T07:18:17.158Z,3.80
2022-08-22T07:20:55.381Z,4.80
2022-08-22T07:23:38.698Z,5.50
2022-08-22T07:26:26.191Z,5.80
2022-08-22T07:29:10.714Z,3.40
2022-08-22T07:31:52.527Z,6.30
2022-08-22T07:34:44.890Z,6.50
2022-08-22T07:37:29.727Z,2.60
2022-08-22T07:40:14.387Z,5.70
2022-08-22T07:42:53.649Z,4.40
2022-08-22T07:45:36.937Z,4.30
2022-08-22T07:48:26.017Z,4.30
2022-08-22T07:51:12.543Z,3.50
2022-08-22T07:53:50.735Z,3.10
2022-08-22T07:56:31.089Z,3.50
2022-08-22T08:01:51.453Z,3.80
2022-08-22T08:04:29.814Z,3.70
2022-08-22T08:07:08.410Z,2.60
2022-08-22T08:09:46.147Z,3.00
2022-08-22T08:12:21.071Z,7.50
2022-08-22T08:14:56.919Z,5.20
2022-08-22T08:17:33.587Z,4.90
2022-08-22T08:20:11.463Z,4.40
2022-08-22T08:22:48.028Z,3.80
2022-08-22T08:25:25.143Z,1.90
2022-08-22T08:28:18.848Z,2.70
2022-08-22T08:31:00.197Z,3.30
2022-08-22T08:33:36.416Z,2.80
2022-08-22T08:36:19.361Z,3.30
2022-08-22T08:39:00.401Z,6.20
2022-08-22T08:42:01.837Z,1.90
2022-08-22T08:45:08.602Z,4.20
2022-08-22T08:47:57.575Z,2.40
2022-08-22T08:50:50.609Z,3.10
2022-08-22T08:53:48.834Z,2.10
2022-08-22T08:56:36.795Z,5.20
2022-08-22T08:59:27.303Z,2.50
2022-08-22T09:05:36.211Z,4.70
2022-08-22T09:09:05.211Z,5.40
2022-08-22T09:12:30.055Z,3.80
2022-08-22T09:15:21.749Z,4.90
2022-08-22T09:18:50.608Z,3.30
2022-08-22T09:22:18.402Z,5.90
2022-08-22T09:25:25.370Z,5.50
2022-08-22T09:28:06.019Z,4.70
2022-08-22T09:30:58.777Z,6.40
2022-08-22T09:33:41.667Z,5.00
2022-08-22T09:36:22.561Z,6.40
2022-08-22T09:39:05.893Z,5.60
2022-08-22T09:41:51.657Z,6.70
2022-08-22T09:44:51.307Z,6.80
2022-08-22T09:47:32.861Z,6.90
2022-08-22T09:50:14.709Z,5.30
2022-08-22T09:53:11.802Z,8.70
2022-08-22T09:55:54.473Z,6.10
2022-08-22T09:58:40.826Z,8.30
2022-08-22T10:01:27.398Z,7.30
2022-08-22T10:04:46.157Z,9.20
2022-08-22T10:07:47.042Z,9.90
2022-08-22T10:10:55.844Z,6.60
2022-08-22T10:13:44.699Z,9.30
2022-08-22T10:16:34.319Z,8.20
2022-08-22T10:19:18.818Z,9.40
2022-08-22T10:22:22.373Z,5.80
2022-08-22T10:25:25.974Z,9.60
2022-08-22T10:28:21.495Z,7.10
2022-08-22T10:31:19.984Z,8.80
2022-08-22T10:34:04.580Z,7.40
2022-08-22T10:36:49.055Z,9.70
2022-08-22T10:39:38.298Z,8.40
2022-08-22T10:42:34.945Z,8.90
2022-08-22T10:45:36.126Z,9.60
2022-08-22T10:48:49.463Z,10.10
2022-08-22T10:51:37.214Z,12.70
2022-08-22T10:54:52.906Z,9.90
2022-08-22T10:57:45.873Z,10.60
2022-08-22T11:00:50.152Z,13.80
2022-08-22T11:03:29.755Z,10.90
2022-08-22T11:06:08.205Z,12.00
2022-08-22T11:09:27.998Z,12.40
2022-08-22T11:12:12.965Z,11.30
2022-08-22T11:15:14.481Z,13.20
2022-08-22T11:18:24.599Z,11.00
2022-08-22T11:21:07.304Z,13.40
2022-08-22T11:23:52.891Z,14.40
2022-08-22T11:26:47.388Z,13.00
2022-08-22T11:29:43.495Z,11.30
2022-08-22T11:32:27.049Z,11.90
2022-08-22T11:35:09.355Z,12.20
2022-08-22T11:37:56.276Z,14.50
2022-08-22T11:40:46.204Z,13.90
2022-08-22T11:43:47.603Z,8.80
2022-08-22T11:46:30.840Z,11.90
2022-08-22T11:49:47.908Z,11.20
2022-08-22T11:52:54.551Z,10.60
2022-08-22T11:55:37.096Z,9.10
2022-08-22T11:58:29.233Z,15.80
2022-08-22T12:01:18.449Z,11.60
2022-08-22T12:04:10.580Z,12.60
2022-08-22T12:07:12.101Z,9.00
2022-08-22T12:09:55.946Z,11.90
2022-08-22T12:13:01.551Z,14.10
2022-08-22T12:15:47.476Z,16.50
2022-08-22T12:18:53.016Z,10.10
2022-08-22T12:22:35.000Z,16.20
2022-08-22T12:25:23.122Z,10.30
2022-08-22T12:28:15.768Z,9.80
2022-08-22T12:31:02.404Z,12.10
2022-08-22T12:34:02.704Z,12.20
2022-08-22T12:37:03.238Z,11.90
2022-08-22T12:40:33.202Z,13.20
2022-08-22T12:43:33.244Z,12.50
2022-08-22T12:46:28.303Z,16.60
2022-08-22T12:49:39.486Z,10.50
2022-08-22T12:52:26.060Z,10.70
2022-08-22T12:55:19.248Z,14.60
2022-08-22T12:58:04.060Z,15.00
2022-08-22T13:00:41.513Z,23.10
2022-08-22T13:03:29.711Z,11.20
2022-08-22T13:06:27.291Z,12.50
2022-08-22T13:09:00.968Z,14.20
2022-08-22T13:11:40.960Z,14.20
2022-08-22T13:14:19.062Z,14.60
2022-08-22T13:17:01.114Z,13.10
2022-08-22T13:20:00.843Z,16.20
2022-08-22T13:22:36.693Z,15.20
2022-08-22T13:25:25.672Z,13.30
2022-08-22T13:28:02.545Z,11.80
2022-08-22T13:30:40.146Z,13.40
2022-08-22T13:33:27.783Z,13.90
2022-08-22T13:36:06.800Z,11.60
2022-08-22T13:38:52.193Z,14.30
2022-08-22T13:41:29.635Z,15.20
2022-08-22T13:44:26.689Z,15.40
2022-08-22T13:47:14.272Z,18.00
2022-08-22T13:49:51.492Z,14.40
2022-08-22T13:52:32.930Z,16.50
2022-08-22T13:55:17.993Z,17.40
2022-08-22T13:57:55.288Z,14.10
2022-08-22T14:01:16.453Z,17.00
2022-08-22T14:03:57.547Z,15.40
2022-08-22T14:06:43.912Z,14.40
2022-08-22T14:09:32.851Z,19.00
2022-08-22T14:12:15.159Z,17.50
2022-08-22T14:14:56.522Z,12.90
2022-08-22T14:17:38.480Z,17.30
2022-08-22T14:20:33.825Z,15.10
2022-08-22T14:23:11.916Z,14.20
2022-08-22T14:25:47.182Z,21.00
2022-08-22T14:28:31.871Z,14.90
2022-08-22T14:31:13.521Z,13.10
2022-08-22T14:33:52.464Z,14.40
2022-08-22T14:36:30.747Z,16.00
2022-08-22T14:39:12.253Z,11.10
2022-08-22T14:41:57.038Z,14.50
2022-08-22T14:44:43.520Z,16.90
2022-08-22T14:47:48.194Z,18.90
2022-08-22T14:50:50.639Z,17.90
2022-08-22T14:53:31.943Z,19.00
2022-08-22T14:56:10.958Z,16.80
2022-08-22T14:58:55.522Z,18.60
2022-08-22T15:01:35.508Z,20.90
2022-08-22T15:04:18.921Z,16.30
2022-08-22T15:06:58.818Z,20.20
2022-08-22T15:09:37.121Z,21.90
2022-08-22T15:12:29.416Z,22.20
2022-08-22T15:15:09.439Z,21.60
2022-08-22T15:17:50.965Z,21.10
2022-08-22T15:20:38.234Z,20.30
2022-08-22T15:23:25.291Z,25.50
2022-08-22T15:26:06.496Z,24.10
2022-08-22T15:28:53.059Z,29.80
2022-08-22T15:31:26.874Z,23.80
2022-08-22T15:34:13.213Z,21.80
2022-08-22T15:40:11.894Z,23.60
2022-08-22T15:42:50.250Z,24.20
2022-08-22T15:45:37.733Z,22.40
2022-08-22T15:48:26.288Z,28.00
2022-08-22T15:51:09.371Z,29.00
2022-08-22T15:56:42.908Z,23.10
2022-08-22T15:59:54.071Z,26.70
2022-08-22T16:02:35.367Z,30.80
2022-08-22T16:05:30.902Z,26.70
2022-08-22T16:08:11.261Z,32.10
2022-08-22T16:13:43.831Z,29.60
2022-08-22T16:16:49.072Z,30.10
2022-08-22T16:19:25.648Z,27.90
2022-08-22T16:22:16.283Z,31.50
2022-08-22T16:25:11.558Z,30.60
2022-08-22T16:28:01.514Z,29.00
2022-08-22T16:30:41.005Z,30.20
2022-08-22T16:33:28.919Z,36.10
2022-08-22T16:36:47.377Z,31.10
2022-08-22T16:39:42.990Z,34.10
2022-08-22T16:42:38.309Z,29.30
2022-08-22T16:45:34.312Z,32.90
2022-08-22T16:48:27.899Z,29.90
2022-08-22T16:51:18.816Z,29.00
2022-08-22T16:54:12.397Z,27.50
2022-08-22T16:57:07.836Z,27.20
2022-08-22T17:00:08.282Z,32.20
2022-08-22T17:05:44.945Z,25.90
2022-08-22T17:08:43.797Z,32.80
2022-08-22T17:11:35.281Z,38.00
2022-08-22T17:14:34.848Z,31.20
2022-08-22T17:17:26.153Z,33.70
2022-08-22T17:20:14.320Z,30.10
2022-08-22T17:23:08.281Z,31.60
2022-08-22T17:25:55.965Z,30.20
2022-08-22T17:28:41.684Z,33.20
2022-08-22T17:31:25.876Z,30.00
2022-08-22T17:34:29.255Z,29.60
2022-08-22T17:37:13.274Z,30.80
2022-08-22T17:40:11.405Z,30.00
2022-08-22T17:43:10.454Z,30.20
2022-08-22T17:46:00.841Z,25.10
2022-08-22T17:51:28.830Z,33.80
2022-08-22T17:54:13.720Z,36.10
2022-08-22T17:57:00.445Z,34.30
2022-08-22T17:59:50.141Z,34.30
2022-08-22T18:02:29.994Z,33.40
2022-08-22T18:05:11.618Z,38.30
2022-08-22T18:08:37.554Z,35.30
2022-08-22T18:11:10.317Z,32.80
2022-08-22T18:13:59.636Z,36.70
2022-08-22T18:16:47.746Z,34.20
2022-08-22T18:19:39.789Z,36.40
2022-08-22T18:22:22.334Z,35.20
2022-08-22T18:25:02.147Z,35.40
2022-08-22T18:27:41.319Z,66.80
2022-08-22T18:30:25.136Z,37.40
2022-08-22T18:33:04.468Z,39.30
2022-08-22T18:35:53.814Z,37.30
2022-08-22T18:38:36.018Z,38.30
2022-08-22T18:41:21.819Z,44.90
2022-08-22T18:43:58.934Z,37.80
2022-08-22T18:46:51.694Z,40.60
2022-08-22T18:49:54.631Z,37.90
2022-08-22T18:52:44.462Z,39.40
2022-08-22T18:55:51.129Z,38.50
2022-08-22T18:58:49.430Z,38.50
2022-08-22T19:01:53.744Z,42.50
2022-08-22T19:05:04.559Z,39.90
2022-08-22T19:08:04.725Z,37.10
2022-08-22T19:10:55.301Z,37.30
2022-08-22T19:14:09.072Z,36.00
2022-08-22T19:17:04.978Z,35.20
2022-08-22T19:20:13.788Z,32.60
2022-08-22T19:22:51.135Z,37.80
2022-08-22T19:25:28.197Z,32.10
2022-08-22T19:28:35.952Z,34.00
2022-08-22T19:31:44.529Z,31.10
2022-08-22T19:34:47.782Z,26.70
2022-08-22T19:37:33.516Z,28.90
2022-08-22T19:40:11.385Z,27.50
2022-08-22T19:42:50.382Z,25.20
2022-08-22T19:45:29.374Z,26.80
2022-08-22T19:48:14.218Z,24.40
2022-08-22T19:50:47.368Z,23.90
2022-08-22T19:53:41.843Z,18.00
2022-08-22T19:56:38.604Z,20.70
2022-08-22T19:59:24.134Z,20.00
2022-08-22T20:02:17.464Z,24.20
2022-08-22T20:05:22.342Z,18.90
2022-08-22T20:08:31.450Z,21.60
2022-08-22T20:11:20.715Z,18.90
2022-08-22T20:14:10.522Z,22.00
2022-08-22T20:17:10.385Z,21.80
2022-08-22T20:22:52.755Z,23.70
2022-08-22T20:25:42.861Z,23.40
2022-08-22T20:28:47.220Z,30.50
2022-08-22T20:31:27.678Z,22.40
2022-08-22T20:36:36.741Z,21.60
2022-08-22T20:39:16.322Z,20.10
2022-08-22T20:41:56.488Z,31.30
2022-08-22T20:44:39.244Z,24.30
2022-08-22T20:47:21.380Z,18.90
2022-08-22T20:49:57.452Z,40.30
2022-08-22T20:52:35.481Z,21.80
2022-08-22T20:55:16.331Z,20.30
2022-08-22T20:57:57.399Z,26.70
2022-08-22T21:00:35.354Z,18.40
2022-08-22T21:03:14.910Z,19.40
2022-08-22T21:05:48.928Z,16.70
2022-08-22T21:08:26.342Z,19.30
2022-08-22T21:11:23.044Z,18.50
2022-08-22T21:13:56.455Z,18.90
2022-08-22T21:16:34.606Z,18.20
2022-08-22T21:19:20.737Z,18.40
2022-08-22T21:21:54.244Z,15.60
2022-08-22T21:24:27.134Z,20.50
2022-08-22T21:27:03.705Z,16.50
2022-08-22T21:29:47.898Z,22.10
2022-08-22T21:32:35.543Z,19.90
2022-08-22T21:35:25.879Z,18.20
2022-08-22T21:38:00.530Z,22.90
2022-08-22T21:40:39.695Z,19.90
2022-08-22T21:43:28.639Z,17.00
2022-08-22T21:46:01.886Z,17.70
2022-08-22T21:48:43.931Z,24.70
2022-08-22T21:51:46.777Z,20.50
2022-08-22T21:54:48.123Z,17.10
2022-08-22T21:57:37.084Z,17.60
2022-08-22T22:00:48.951Z,16.50
2022-08-22T22:03:26.834Z,16.40
2022-08-22T22:06:03.615Z,16.20
2022-08-22T22:08:37.025Z,13.40
2022-08-22T22:11:14.953Z,16.70
2022-08-22T22:13:47.801Z,17.00
2022-08-22T22:16:25.233Z,16.70
2022-08-22T22:18:58.533Z,14.10
2022-08-22T22:21:31.588Z,16.20
2022-08-22T22:24:05.032Z,17.40
2022-08-22T22:26:38.029Z,13.60
2022-08-22T22:29:11.227Z,11.80
2022-08-22T22:31:44.077Z,13.70
2022-08-22T22:34:18.595Z,17.80
2022-08-22T22:36:51.787Z,16.20
2022-08-22T22:39:24.740Z,20.60
2022-08-22T22:41:57.862Z,17.30
2022-08-22T22:44:30.672Z,16.30
2022-08-22T22:47:05.375Z,19.90
2022-08-22T22:49:40.547Z,24.40
2022-08-22T22:52:13.564Z,22.40
2022-08-22T22:54:46.384Z,17.90
2022-08-22T22:57:25.535Z,25.90
2022-08-22T22:59:58.733Z,21.50
2022-08-22T23:02:31.827Z,26.10
2022-08-22T23:05:05.027Z,23.60
2022-08-22T23:07:38.508Z,31.60
2022-08-22T23:10:13.464Z,30.00
2022-08-22T23:12:46.201Z,25.90
2022-08-22T23:15:19.287Z,25.30
2022-08-22T23:17:52.478Z,29.30
2022-08-22T23:20:25.571Z,27.70
2022-08-22T23:22:59.885Z,31.50
2022-08-22T23:25:32.987Z,26.70
2022-08-22T23:28:06.601Z,34.10
2022-08-22T23:30:39.359Z,27.20
2022-08-22T23:33:12.225Z,32.00
2022-08-22T23:35:45.434Z,30.30
2022-08-22T23:38:18.413Z,27.30
2022-08-22T23:40:53.760Z,34.60
2022-08-22T23:43:26.589Z,28.60
2022-08-22T23:45:59.429Z,28.70
2022-08-22T23:48:32.542Z,34.90
2022-08-22T23:51:05.647Z,32.30
2022-08-22T23:53:39.297Z,31.20
2022-08-22T23:56:19.098Z,33.00
2022-08-22T23:58:53.484Z,28.80
